sensor_id;sensor_type;location;lat;lon;timestamp;P1;durP1;ratioP1;P2;durP2;ratioP2
19347;SDS011;9810;52.480;9.806;2022-09-20T00:01:29;6.00;;;1.57;;
19347;SDS011;9810;52.480;9.806;2022-09-20T00:03:59;9.40;;;2.00;;
19347;SDS011;9810;52.480;9.806;2022-09-20T00:06:29;6.00;;;2.23;;
19347;SDS011;9810;52.480;9.806;2022-09-20T00:08:57;5.10;;;1.57;;
19347;SDS011;9810;52.480;9.806;2022-09-20T00:11:25;5.60;;;1.67;;
19347;SDS011;9810;52.480;9.806;2022-09-20T00:13:55;8.13;;;1.70;;
19347;SDS011;9810;52.480;9.806;2022-09-20T00:16:24;8.13;;;2.70;;
19347;SDS011;9810;52.480;9.806;2022-09-20T00:18:54;13.27;;;4.70;;
19347;SDS011;9810;52.480;9.806;2022-09-20T00:21:24;9.73;;;2.20;;
19347;SDS011;9810;52.480;9.806;2022-09-20T00:23:54;9.13;;;1.80;;
19347;SDS011;9810;52.480;9.806;2022-09-20T00:26:22;7.37;;;1.80;;
19347;SDS011;9810;52.480;9.806;2022-09-20T00:28:50;10.03;;;1.83;;
19347;SDS011;9810;52.480;9.806;2022-09-20T00:31:17;8.47;;;1.63;;
19347;SDS011;9810;52.480;9.806;2022-09-20T00:33:45;11.63;;;2.27;;
19347;SDS011;9810;52.480;9.806;2022-09-20T00:36:31;13.23;;;1.87;;
19347;SDS011;9810;52.480;9.806;2022-09-20T00:38:59;12.50;;;2.73;;
19347;SDS011;9810;52.480;9.806;2022-09-20T00:41:28;9.60;;;1.73;;
19347;SDS011;9810;52.480;9.806;2022-09-20T00:43:57;12.13;;;2.27;;
19347;SDS011;9810;52.480;9.806;2022-09-20T00:46:26;10.70;;;2.70;;
19347;SDS011;9810;52.480;9.806;2022-09-20T00:49:00;11.53;;;1.97;;
19347;SDS011;9810;52.480;9.806;2022-09-20T00:51:33;9.17;;;1.67;;
19347;SDS011;9810;52.480;9.806;2022-09-20T00:54:04;8.77;;;2.50;;
19347;SDS011;9810;52.480;9.806;2022-09-20T00:56:35;7.03;;;1.97;;
19347;SDS011;9810;52.480;9.806;2022-09-20T00:59:05;8.83;;;1.53;;
19347;SDS011;9810;52.480;9.806;2022-09-20T01:01:38;15.10;;;2.07;;
19347;SDS011;9810;52.480;9.806;2022-09-20T01:04:06;8.53;;;1.60;;
19347;SDS011;9810;52.480;9.806;2022-09-20T01:06:36;7.10;;;1.60;;
19347;SDS011;9810;52.480;9.806;2022-09-20T01:09:03;8.17;;;1.43;;
19347;SDS011;9810;52.480;9.806;2022-09-20T01:11:32;13.20;;;2.07;;
19347;SDS011;9810;52.480;9.806;2022-09-20T01:14:00;6.93;;;1.70;;
19347;SDS011;9810;52.480;9.806;2022-09-20T01:16:27;6.87;;;1.73;;
19347;SDS011;9810;52.480;9.806;2022-09-20T01:18:56;8.13;;;1.00;;
19347;SDS011;9810;52.480;9.806;2022-09-20T01:21:26;7.03;;;2.15;;
19347;SDS011;9810;52.480;9.806;2022-09-20T01:23:57;9.73;;;1.53;;
19347;SDS011;9810;52.480;9.806;2022-09-20T01:26:40;13.30;;;2.10;;
19347;SDS011;9810;52.480;9.806;2022-09-20T01:29:28;10.37;;;3.53;;
19347;SDS011;9810;52.480;9.806;2022-09-20T01:32:07;5.03;;;1.77;;
19347;SDS011;9810;52.480;9.806;2022-09-20T01:34:41;10.77;;;1.83;;
19347;SDS011;9810;52.480;9.806;2022-09-20T01:37:13;10.90;;;1.93;;
19347;SDS011;9810;52.480;9.806;2022-09-20T01:39:48;10.27;;;1.77;;
19347;SDS011;9810;52.480;9.806;2022-09-20T01:42:21;5.23;;;1.47;;
19347;SDS011;9810;52.480;9.806;2022-09-20T01:44:59;8.83;;;1.53;;
19347;SDS011;9810;52.480;9.806;2022-09-20T01:47:30;12.50;;;1.90;;
19347;SDS011;9810;52.480;9.806;2022-09-20T01:50:02;8.00;;;1.90;;
19347;SDS011;9810;52.480;9.806;2022-09-20T01:58:59;15.33;;;2.37;;
19347;SDS011;9810;52.480;9.806;2022-09-20T02:05:02;11.13;;;2.00;;
19347;SDS011;9810;52.480;9.806;2022-09-20T02:07:58;4.73;;;2.10;;
19347;SDS011;9810;52.480;9.806;2022-09-20T02:10:37;8.07;;;1.80;;
19347;SDS011;9810;52.480;9.806;2022-09-20T02:13:16;12.83;;;2.40;;
19347;SDS011;9810;52.480;9.806;2022-09-20T02:16:03;10.23;;;1.97;;
19347;SDS011;9810;52.480;9.806;2022-09-20T02:18:46;7.10;;;1.90;;
19347;SDS011;9810;52.480;9.806;2022-09-20T02:21:35;16.77;;;3.03;;
19347;SDS011;9810;52.480;9.806;2022-09-20T02:24:11;13.40;;;2.20;;
19347;SDS011;9810;52.480;9.806;2022-09-20T02:26:49;9.93;;;2.27;;
19347;SDS011;9810;52.480;9.806;2022-09-20T02:29:34;7.33;;;1.83;;
19347;SDS011;9810;52.480;9.806;2022-09-20T02:32:19;9.87;;;2.60;;
19347;SDS011;9810;52.480;9.806;2022-09-20T02:35:09;4.63;;;2.07;;
19347;SDS011;9810;52.480;9.806;2022-09-20T02:37:56;16.83;;;2.77;;
19347;SDS011;9810;52.480;9.806;2022-09-20T02:40:39;8.83;;;3.00;;
19347;SDS011;9810;52.480;9.806;2022-09-20T02:43:24;14.90;;;3.53;;
19347;SDS011;9810;52.480;9.806;2022-09-20T02:45:58;13.10;;;4.00;;
19347;SDS011;9810;52.480;9.806;2022-09-20T02:48:33;22.47;;;5.43;;
19347;SDS011;9810;52.480;9.806;2022-09-20T02:51:07;14.73;;;5.30;;
19347;SDS011;9810;52.480;9.806;2022-09-20T02:53:44;16.20;;;5.53;;
19347;SDS011;9810;52.480;9.806;2022-09-20T02:56:23;21.33;;;5.47;;
19347;SDS011;9810;52.480;9.806;2022-09-20T02:58:59;12.30;;;5.90;;
19347;SDS011;9810;52.480;9.806;2022-09-20T03:01:34;25.27;;;6.93;;
19347;SDS011;9810;52.480;9.806;2022-09-20T03:04:13;20.65;;;6.97;;
19347;SDS011;9810;52.480;9.806;2022-09-20T03:06:52;17.50;;;5.87;;
19347;SDS011;9810;52.480;9.806;2022-09-20T03:09:28;16.97;;;6.13;;
19347;SDS011;9810;52.480;9.806;2022-09-20T03:12:05;25.13;;;6.57;;
19347;SDS011;9810;52.480;9.806;2022-09-20T03:14:45;17.67;;;6.43;;
19347;SDS011;9810;52.480;9.806;2022-09-20T03:17:21;15.20;;;5.57;;
19347;SDS011;9810;52.480;9.806;2022-09-20T03:20:12;20.60;;;8.27;;
19347;SDS011;9810;52.480;9.806;2022-09-20T03:22:53;17.43;;;6.47;;
19347;SDS011;9810;52.480;9.806;2022-09-20T03:25:40;15.87;;;6.07;;
19347;SDS011;9810;52.480;9.806;2022-09-20T03:31:18;16.57;;;6.23;;
19347;SDS011;9810;52.480;9.806;2022-09-20T03:33:58;11.57;;;6.20;;
19347;SDS011;9810;52.480;9.806;2022-09-20T03:36:44;15.50;;;6.33;;
19347;SDS011;9810;52.480;9.806;2022-09-20T03:39:28;16.33;;;6.30;;
19347;SDS011;9810;52.480;9.806;2022-09-20T03:42:07;20.90;;;6.73;;
19347;SDS011;9810;52.480;9.806;2022-09-20T03:47:51;25.30;;;6.60;;
19347;SDS011;9810;52.480;9.806;2022-09-20T03:50:46;12.03;;;6.03;;
19347;SDS011;9810;52.480;9.806;2022-09-20T03:53:26;18.00;;;7.20;;
19347;SDS011;9810;52.480;9.806;2022-09-20T03:56:22;16.10;;;6.70;;
19347;SDS011;9810;52.480;9.806;2022-09-20T03:59:17;16.10;;;6.73;;
19347;SDS011;9810;52.480;9.806;2022-09-20T04:02:03;16.03;;;6.73;;
19347;SDS011;9810;52.480;9.806;2022-09-20T04:04:44;21.17;;;6.30;;
19347;SDS011;9810;52.480;9.806;2022-09-20T04:07:17;20.80;;;7.73;;
19347;SDS011;9810;52.480;9.806;2022-09-20T04:13:03;14.80;;;7.10;;
19347;SDS011;9810;52.480;9.806;2022-09-20T04:15:50;10.50;;;5.57;;
19347;SDS011;9810;52.480;9.806;2022-09-20T04:18:29;17.97;;;6.20;;
19347;SDS011;9810;52.480;9.806;2022-09-20T04:21:03;17.50;;;7.20;;
19347;SDS011;9810;52.480;9.806;2022-09-20T04:23:35;19.57;;;6.00;;
19347;SDS011;9810;52.480;9.806;2022-09-20T04:26:08;14.80;;;6.67;;
19347;SDS011;9810;52.480;9.806;2022-09-20T04:28:38;12.83;;;6.33;;
19347;SDS011;9810;52.480;9.806;2022-09-20T04:31:13;19.83;;;7.30;;
19347;SDS011;9810;52.480;9.806;2022-09-20T04:33:50;17.83;;;6.67;;
19347;SDS011;9810;52.480;9.806;2022-09-20T04:36:32;19.70;;;7.20;;
19347;SDS011;9810;52.480;9.806;2022-09-20T04:39:05;19.33;;;6.50;;
19347;SDS011;9810;52.480;9.806;2022-09-20T04:41:47;17.97;;;6.57;;
19347;SDS011;9810;52.480;9.806;2022-09-20T04:45:03;17.00;;;6.70;;
19347;SDS011;9810;52.480;9.806;2022-09-20T04:47:55;18.70;;;6.97;;
19347;SDS011;9810;52.480;9.806;2022-09-20T04:50:40;19.90;;;8.03;;
19347;SDS011;9810;52.480;9.806;2022-09-20T04:56:40;16.07;;;6.93;;
19347;SDS011;9810;52.480;9.806;2022-09-20T04:59:26;22.33;;;8.07;;
19347;SDS011;9810;52.480;9.806;2022-09-20T05:02:21;22.33;;;8.03;;
19347;SDS011;9810;52.480;9.806;2022-09-20T05:05:17;20.97;;;7.60;;
19347;SDS011;9810;52.480;9.806;2022-09-20T05:14:19;18.73;;;7.90;;
19347;SDS011;9810;52.480;9.806;2022-09-20T05:16:59;26.07;;;9.30;;
19347;SDS011;9810;52.480;9.806;2022-09-20T05:19:40;20.77;;;8.70;;
19347;SDS011;9810;52.480;9.806;2022-09-20T05:22:30;22.90;;;8.67;;
19347;SDS011;9810;52.480;9.806;2022-09-20T05:25:29;21.77;;;8.67;;
19347;SDS011;9810;52.480;9.806;2022-09-20T05:28:10;15.83;;;8.87;;
19347;SDS011;9810;52.480;9.806;2022-09-20T05:30:43;23.87;;;9.17;;
19347;SDS011;9810;52.480;9.806;2022-09-20T05:33:17;22.33;;;10.45;;
19347;SDS011;9810;52.480;9.806;2022-09-20T05:35:54;24.43;;;8.87;;
19347;SDS011;9810;52.480;9.806;2022-09-20T05:38:31;20.50;;;8.87;;
19347;SDS011;9810;52.480;9.806;2022-09-20T05:41:07;20.47;;;8.10;;
19347;SDS011;9810;52.480;9.806;2022-09-20T05:43:43;15.37;;;8.77;;
19347;SDS011;9810;52.480;9.806;2022-09-20T05:46:21;20.53;;;8.63;;
19347;SDS011;9810;52.480;9.806;2022-09-20T05:49:01;20.03;;;9.00;;
19347;SDS011;9810;52.480;9.806;2022-09-20T05:51:45;19.07;;;9.60;;
19347;SDS011;9810;52.480;9.806;2022-09-20T05:54:24;18.67;;;8.30;;
19347;SDS011;9810;52.480;9.806;2022-09-20T05:57:15;23.47;;;10.17;;
19347;SDS011;9810;52.480;9.806;2022-09-20T05:59:56;19.40;;;8.00;;
19347;SDS011;9810;52.480;9.806;2022-09-20T06:02:31;19.77;;;8.30;;
19347;SDS011;9810;52.480;9.806;2022-09-20T06:05:09;19.83;;;9.20;;
19347;SDS011;9810;52.480;9.806;2022-09-20T06:07:54;21.37;;;8.00;;
19347;SDS011;9810;52.480;9.806;2022-09-20T06:10:46;20.50;;;8.07;;
19347;SDS011;9810;52.480;9.806;2022-09-20T06:13:34;21.80;;;7.70;;
19347;SDS011;9810;52.480;9.806;2022-09-20T06:16:16;18.37;;;7.57;;
19347;SDS011;9810;52.480;9.806;2022-09-20T06:18:56;15.37;;;6.57;;
19347;SDS011;9810;52.480;9.806;2022-09-20T06:21:37;14.33;;;6.97;;
19347;SDS011;9810;52.480;9.806;2022-09-20T06:24:15;13.40;;;6.43;;
19347;SDS011;9810;52.480;9.806;2022-09-20T06:26:49;13.67;;;7.23;;
19347;SDS011;9810;52.480;9.806;2022-09-20T06:29:24;12.67;;;5.83;;
19347;SDS011;9810;52.480;9.806;2022-09-20T06:31:55;19.87;;;6.70;;
19347;SDS011;9810;52.480;9.806;2022-09-20T06:34:22;13.30;;;6.90;;
19347;SDS011;9810;52.480;9.806;2022-09-20T06:36:53;12.33;;;5.80;;
19347;SDS011;9810;52.480;9.806;2022-09-20T06:39:48;17.50;;;6.57;;
19347;SDS011;9810;52.480;9.806;2022-09-20T06:42:38;19.70;;;6.37;;
19347;SDS011;9810;52.480;9.806;2022-09-20T06:45:08;18.53;;;6.47;;
19347;SDS011;9810;52.480;9.806;2022-09-20T06:47:36;19.40;;;5.80;;
19347;SDS011;9810;52.480;9.806;2022-09-20T06:50:04;13.37;;;6.30;;
19347;SDS011;9810;52.480;9.806;2022-09-20T06:52:31;16.70;;;5.63;;
19347;SDS011;9810;52.480;9.806;2022-09-20T06:55:03;16.67;;;5.60;;
19347;SDS011;9810;52.480;9.806;2022-09-20T06:57:34;11.43;;;5.13;;
19347;SDS011;9810;52.480;9.806;2022-09-20T07:00:03;13.23;;;6.20;;
19347;SDS011;9810;52.480;9.806;2022-09-20T07:02:34;16.27;;;5.50;;
19347;SDS011;9810;52.480;9.806;2022-09-20T07:05:02;16.73;;;5.23;;
19347;SDS011;9810;52.480;9.806;2022-09-20T07:07:31;12.80;;;4.93;;
19347;SDS011;9810;52.480;9.806;2022-09-20T07:09:58;15.77;;;4.97;;
19347;SDS011;9810;52.480;9.806;2022-09-20T07:12:28;13.07;;;4.73;;
19347;SDS011;9810;52.480;9.806;2022-09-20T07:14:56;17.50;;;5.10;;
19347;SDS011;9810;52.480;9.806;2022-09-20T07:17:23;14.40;;;4.07;;
19347;SDS011;9810;52.480;9.806;2022-09-20T07:19:50;8.90;;;4.20;;
19347;SDS011;9810;52.480;9.806;2022-09-20T07:22:17;14.23;;;4.03;;
19347;SDS011;9810;52.480;9.806;2022-09-20T07:24:45;13.87;;;4.33;;
19347;SDS011;9810;52.480;9.806;2022-09-20T07:27:12;12.37;;;3.33;;
19347;SDS011;9810;52.480;9.806;2022-09-20T07:29:42;7.77;;;3.67;;
19347;SDS011;9810;52.480;9.806;2022-09-20T07:32:10;10.43;;;3.50;;
19347;SDS011;9810;52.480;9.806;2022-09-20T07:34:37;13.27;;;3.23;;
19347;SDS011;9810;52.480;9.806;2022-09-20T07:37:04;13.57;;;3.27;;
19347;SDS011;9810;52.480;9.806;2022-09-20T07:39:31;7.63;;;4.30;;
19347;SDS011;9810;52.480;9.806;2022-09-20T07:41:58;9.73;;;3.10;;
19347;SDS011;9810;52.480;9.806;2022-09-20T07:44:30;7.20;;;3.20;;
19347;SDS011;9810;52.480;9.806;2022-09-20T07:46:59;7.63;;;2.70;;
19347;SDS011;9810;52.480;9.806;2022-09-20T07:49:27;10.70;;;2.40;;
19347;SDS011;9810;52.480;9.806;2022-09-20T07:51:55;10.17;;;3.77;;
19347;SDS011;9810;52.480;9.806;2022-09-20T07:54:23;6.13;;;2.50;;
19347;SDS011;9810;52.480;9.806;2022-09-20T07:56:51;6.17;;;2.23;;
19347;SDS011;9810;52.480;9.806;2022-09-20T07:59:19;6.73;;;1.93;;
19347;SDS011;9810;52.480;9.806;2022-09-20T08:01:46;5.73;;;1.87;;
19347;SDS011;9810;52.480;9.806;2022-09-20T08:04:15;5.37;;;1.63;;
19347;SDS011;9810;52.480;9.806;2022-09-20T08:06:43;6.53;;;1.37;;
19347;SDS011;9810;52.480;9.806;2022-09-20T08:09:11;7.67;;;1.60;;
19347;SDS011;9810;52.480;9.806;2022-09-20T08:11:40;8.10;;;1.57;;
19347;SDS011;9810;52.480;9.806;2022-09-20T08:14:10;5.37;;;1.83;;
19347;SDS011;9810;52.480;9.806;2022-09-20T08:16:40;8.77;;;1.97;;
19347;SDS011;9810;52.480;9.806;2022-09-20T08:19:12;7.63;;;1.30;;
19347;SDS011;9810;52.480;9.806;2022-09-20T08:21:42;6.80;;;1.88;;
19347;SDS011;9810;52.480;9.806;2022-09-20T08:24:10;7.70;;;1.70;;
19347;SDS011;9810;52.480;9.806;2022-09-20T08:26:37;3.40;;;1.23;;
19347;SDS011;9810;52.480;9.806;2022-09-20T08:29:06;2.20;;;1.03;;
19347;SDS011;9810;52.480;9.806;2022-09-20T08:31:36;3.70;;;1.27;;
19347;SDS011;9810;52.480;9.806;2022-09-20T08:34:07;5.47;;;1.00;;
19347;SDS011;9810;52.480;9.806;2022-09-20T08:36:38;7.10;;;1.50;;
19347;SDS011;9810;52.480;9.806;2022-09-20T08:39:09;11.83;;;1.20;;
19347;SDS011;9810;52.480;9.806;2022-09-20T08:41:38;5.90;;;1.33;;
19347;SDS011;9810;52.480;9.806;2022-09-20T08:44:11;7.40;;;1.30;;
19347;SDS011;9810;52.480;9.806;2022-09-20T08:46:43;7.17;;;1.47;;
19347;SDS011;9810;52.480;9.806;2022-09-20T08:49:15;3.40;;;1.33;;
19347;SDS011;9810;52.480;9.806;2022-09-20T08:51:50;8.30;;;1.00;;
19347;SDS011;9810;52.480;9.806;2022-09-20T08:54:18;4.27;;;0.77;;
19347;SDS011;9810;52.480;9.806;2022-09-20T08:56:48;5.30;;;1.10;;
19347;SDS011;9810;52.480;9.806;2022-09-20T08:59:15;6.80;;;0.93;;
19347;SDS011;9810;52.480;9.806;2022-09-20T09:01:45;4.60;;;0.90;;
19347;SDS011;9810;52.480;9.806;2022-09-20T09:04:13;6.57;;;1.40;;
19347;SDS011;9810;52.480;9.806;2022-09-20T09:06:41;5.20;;;1.10;;
19347;SDS011;9810;52.480;9.806;2022-09-20T09:09:13;6.47;;;1.17;;
19347;SDS011;9810;52.480;9.806;2022-09-20T09:11:44;6.17;;;1.50;;
19347;SDS011;9810;52.480;9.806;2022-09-20T09:14:15;7.13;;;1.20;;
19347;SDS011;9810;52.480;9.806;2022-09-20T09:17:08;7.07;;;1.10;;
19347;SDS011;9810;52.480;9.806;2022-09-20T09:19:44;4.67;;;1.10;;
19347;SDS011;9810;52.480;9.806;2022-09-20T09:22:17;6.47;;;1.40;;
19347;SDS011;9810;52.480;9.806;2022-09-20T09:24:52;13.50;;;1.73;;
19347;SDS011;9810;52.480;9.806;2022-09-20T09:27:51;3.13;;;1.03;;
19347;SDS011;9810;52.480;9.806;2022-09-20T09:30:21;6.73;;;1.37;;
19347;SDS011;9810;52.480;9.806;2022-09-20T09:32:50;6.37;;;1.90;;
19347;SDS011;9810;52.480;9.806;2022-09-20T09:35:22;4.77;;;1.10;;
19347;SDS011;9810;52.480;9.806;2022-09-20T09:37:52;10.17;;;1.73;;
19347;SDS011;9810;52.480;9.806;2022-09-20T09:40:23;6.03;;;1.57;;
19347;SDS011;9810;52.480;9.806;2022-09-20T09:42:50;5.40;;;1.47;;
19347;SDS011;9810;52.480;9.806;2022-09-20T09:45:24;5.90;;;1.48;;
19347;SDS011;9810;52.480;9.806;2022-09-20T09:47:54;4.00;;;1.23;;
19347;SDS011;9810;52.480;9.806;2022-09-20T09:50:24;8.43;;;1.30;;
19347;SDS011;9810;52.480;9.806;2022-09-20T09:53:02;3.47;;;1.03;;
19347;SDS011;9810;52.480;9.806;2022-09-20T09:58:35;4.23;;;1.17;;
19347;SDS011;9810;52.480;9.806;2022-09-20T10:01:11;4.03;;;1.10;;
19347;SDS011;9810;52.480;9.806;2022-09-20T10:03:49;4.63;;;1.50;;
19347;SDS011;9810;52.480;9.806;2022-09-20T10:06:21;5.53;;;1.53;;
19347;SDS011;9810;52.480;9.806;2022-09-20T10:09:00;7.43;;;1.30;;
19347;SDS011;9810;52.480;9.806;2022-09-20T10:11:40;6.63;;;1.13;;
19347;SDS011;9810;52.480;9.806;2022-09-20T10:14:25;5.60;;;1.30;;
19347;SDS011;9810;52.480;9.806;2022-09-20T10:17:08;4.73;;;1.53;;
19347;SDS011;9810;52.480;9.806;2022-09-20T10:20:00;5.63;;;1.37;;
19347;SDS011;9810;52.480;9.806;2022-09-20T10:22:37;6.90;;;1.20;;
19347;SDS011;9810;52.480;9.806;2022-09-20T10:25:16;5.50;;;1.57;;
19347;SDS011;9810;52.480;9.806;2022-09-20T10:27:58;6.17;;;1.03;;
19347;SDS011;9810;52.480;9.806;2022-09-20T10:30:35;7.37;;;1.67;;
19347;SDS011;9810;52.480;9.806;2022-09-20T10:33:15;3.13;;;1.00;;
19347;SDS011;9810;52.480;9.806;2022-09-20T10:35:56;5.13;;;1.10;;
19347;SDS011;9810;52.480;9.806;2022-09-20T10:38:33;7.03;;;1.30;;
19347;SDS011;9810;52.480;9.806;2022-09-20T10:41:06;3.67;;;1.33;;
19347;SDS011;9810;52.480;9.806;2022-09-20T10:44:14;6.57;;;0.80;;
19347;SDS011;9810;52.480;9.806;2022-09-20T10:46:57;6.47;;;0.80;;
19347;SDS011;9810;52.480;9.806;2022-09-20T10:49:33;3.90;;;0.77;;
19347;SDS011;9810;52.480;9.806;2022-09-20T10:55:09;4.80;;;1.37;;
19347;SDS011;9810;52.480;9.806;2022-09-20T10:58:10;5.13;;;0.90;;
19347;SDS011;9810;52.480;9.806;2022-09-20T11:01:08;6.03;;;1.10;;
19347;SDS011;9810;52.480;9.806;2022-09-20T11:06:46;5.73;;;1.23;;
19347;SDS011;9810;52.480;9.806;2022-09-20T11:09:18;5.90;;;1.13;;
19347;SDS011;9810;52.480;9.806;2022-09-20T11:11:49;3.77;;;0.97;;
19347;SDS011;9810;52.480;9.806;2022-09-20T11:14:24;4.20;;;1.03;;
19347;SDS011;9810;52.480;9.806;2022-09-20T11:17:00;3.40;;;0.77;;
19347;SDS011;9810;52.480;9.806;2022-09-20T11:19:36;6.13;;;1.50;;
19347;SDS011;9810;52.480;9.806;2022-09-20T11:22:10;3.30;;;0.57;;
19347;SDS011;9810;52.480;9.806;2022-09-20T11:24:40;3.05;;;0.70;;
19347;SDS011;9810;52.480;9.806;2022-09-20T11:27:13;2.80;;;0.40;;
19347;SDS011;9810;52.480;9.806;2022-09-20T11:29:44;4.63;;;0.53;;
19347;SDS011;9810;52.480;9.806;2022-09-20T11:32:19;3.37;;;0.40;;
19347;SDS011;9810;52.480;9.806;2022-09-20T11:34:53;1.80;;;0.47;;
19347;SDS011;9810;52.480;9.806;2022-09-20T11:37:24;3.10;;;1.23;;
19347;SDS011;9810;52.480;9.806;2022-09-20T11:39:58;1.80;;;0.40;;
19347;SDS011;9810;52.480;9.806;2022-09-20T11:42:31;1.17;;;0.40;;
19347;SDS011;9810;52.480;9.806;2022-09-20T11:45:01;1.90;;;0.60;;
19347;SDS011;9810;52.480;9.806;2022-09-20T11:47:36;2.27;;;0.30;;
19347;SDS011;9810;52.480;9.806;2022-09-20T11:50:15;4.97;;;0.60;;
19347;SDS011;9810;52.480;9.806;2022-09-20T11:53:13;2.70;;;0.70;;
19347;SDS011;9810;52.480;9.806;2022-09-20T11:55:49;3.30;;;0.60;;
19347;SDS011;9810;52.480;9.806;2022-09-20T11:58:23;3.23;;;0.47;;
19347;SDS011;9810;52.480;9.806;2022-09-20T12:00:52;4.27;;;0.50;;
19347;SDS011;9810;52.480;9.806;2022-09-20T12:03:26;1.77;;;0.60;;
19347;SDS011;9810;52.480;9.806;2022-09-20T12:05:58;5.13;;;0.80;;
19347;SDS011;9810;52.480;9.806;2022-09-20T12:08:28;3.90;;;0.67;;
19347;SDS011;9810;52.480;9.806;2022-09-20T12:11:00;1.70;;;0.53;;
19347;SDS011;9810;52.480;9.806;2022-09-20T12:13:29;1.57;;;0.53;;
19347;SDS011;9810;52.480;9.806;2022-09-20T12:16:00;3.30;;;1.10;;
19347;SDS011;9810;52.480;9.806;2022-09-20T12:21:40;5.33;;;0.97;;
19347;SDS011;9810;52.480;9.806;2022-09-20T12:24:42;17.73;;;1.20;;
19347;SDS011;9810;52.480;9.806;2022-09-20T12:27:53;2.70;;;1.23;;
19347;SDS011;9810;52.480;9.806;2022-09-20T12:30:23;1.97;;;0.53;;
19347;SDS011;9810;52.480;9.806;2022-09-20T12:32:54;5.30;;;0.90;;
19347;SDS011;9810;52.480;9.806;2022-09-20T12:38:54;2.53;;;0.40;;
19347;SDS011;9810;52.480;9.806;2022-09-20T12:41:24;2.23;;;0.70;;
19347;SDS011;9810;52.480;9.806;2022-09-20T12:43:58;2.90;;;0.67;;
19347;SDS011;9810;52.480;9.806;2022-09-20T12:46:32;1.57;;;0.40;;
19347;SDS011;9810;52.480;9.806;2022-09-20T12:49:11;2.40;;;0.83;;
19347;SDS011;9810;52.480;9.806;2022-09-20T12:52:00;1.30;;;0.77;;
19347;SDS011;9810;52.480;9.806;2022-09-20T12:54:49;6.30;;;0.80;;
19347;SDS011;9810;52.480;9.806;2022-09-20T12:57:24;6.07;;;0.80;;
19347;SDS011;9810;52.480;9.806;2022-09-20T12:59:58;3.90;;;0.53;;
19347;SDS011;9810;52.480;9.806;2022-09-20T13:02:41;4.80;;;0.70;;
19347;SDS011;9810;52.480;9.806;2022-09-20T13:05:29;3.17;;;0.53;;
19347;SDS011;9810;52.480;9.806;2022-09-20T13:08:01;2.47;;;0.60;;
19347;SDS011;9810;52.480;9.806;2022-09-20T13:10:33;2.27;;;0.50;;
19347;SDS011;9810;52.480;9.806;2022-09-20T13:13:10;2.90;;;0.50;;
19347;SDS011;9810;52.480;9.806;2022-09-20T13:15:47;2.03;;;0.40;;
19347;SDS011;9810;52.480;9.806;2022-09-20T13:18:17;1.47;;;0.60;;
19347;SDS011;9810;52.480;9.806;2022-09-20T13:20:46;2.83;;;0.40;;
19347;SDS011;9810;52.480;9.806;2022-09-20T13:23:16;5.87;;;1.43;;
19347;SDS011;9810;52.480;9.806;2022-09-20T13:25:47;2.50;;;0.40;;
19347;SDS011;9810;52.480;9.806;2022-09-20T13:28:18;1.83;;;0.20;;
19347;SDS011;9810;52.480;9.806;2022-09-20T13:33:53;1.80;;;0.30;;
19347;SDS011;9810;52.480;9.806;2022-09-20T13:36:25;1.70;;;0.47;;
19347;SDS011;9810;52.480;9.806;2022-09-20T13:38:55;1.50;;;0.30;;
19347;SDS011;9810;52.480;9.806;2022-09-20T13:41:25;1.40;;;0.43;;
19347;SDS011;9810;52.480;9.806;2022-09-20T13:43:56;0.30;;;0.17;;
19347;SDS011;9810;52.480;9.806;2022-09-20T13:46:29;0.77;;;0.40;;
19347;SDS011;9810;52.480;9.806;2022-09-20T13:48:58;3.80;;;0.40;;
19347;SDS011;9810;52.480;9.806;2022-09-20T13:51:38;1.90;;;0.47;;
19347;SDS011;9810;52.480;9.806;2022-09-20T13:54:19;0.50;;;0.30;;
19347;SDS011;9810;52.480;9.806;2022-09-20T13:56:51;0.20;;;0.20;;
19347;SDS011;9810;52.480;9.806;2022-09-20T13:59:20;0.63;;;0.20;;
19347;SDS011;9810;52.480;9.806;2022-09-20T14:01:52;1.97;;;0.30;;
19347;SDS011;9810;52.480;9.806;2022-09-20T14:04:20;1.80;;;0.53;;
19347;SDS011;9810;52.480;9.806;2022-09-20T14:06:50;1.70;;;0.37;;
19347;SDS011;9810;52.480;9.806;2022-09-20T14:09:22;1.05;;;0.30;;
19347;SDS011;9810;52.480;9.806;2022-09-20T14:11:53;1.30;;;0.20;;
19347;SDS011;9810;52.480;9.806;2022-09-20T14:14:22;1.03;;;0.30;;
19347;SDS011;9810;52.480;9.806;2022-09-20T14:16:52;2.00;;;0.40;;
19347;SDS011;9810;52.480;9.806;2022-09-20T14:19:24;0.60;;;0.27;;
19347;SDS011;9810;52.480;9.806;2022-09-20T14:21:56;0.20;;;0.20;;
19347;SDS011;9810;52.480;9.806;2022-09-20T14:24:26;1.33;;;0.20;;
19347;SDS011;9810;52.480;9.806;2022-09-20T14:27:00;0.40;;;0.40;;
19347;SDS011;9810;52.480;9.806;2022-09-20T14:29:36;0.20;;;0.20;;
19347;SDS011;9810;52.480;9.806;2022-09-20T14:32:09;0.40;;;0.40;;
19347;SDS011;9810;52.480;9.806;2022-09-20T14:34:51;0.57;;;0.27;;
19347;SDS011;9810;52.480;9.806;2022-09-20T14:37:26;5.73;;;1.03;;
19347;SDS011;9810;52.480;9.806;2022-09-20T14:39:56;1.83;;;0.60;;
19347;SDS011;9810;52.480;9.806;2022-09-20T14:42:26;1.03;;;0.40;;
19347;SDS011;9810;52.480;9.806;2022-09-20T14:44:56;2.70;;;0.40;;
19347;SDS011;9810;52.480;9.806;2022-09-20T14:47:27;1.33;;;0.40;;
19347;SDS011;9810;52.480;9.806;2022-09-20T14:50:00;1.07;;;0.37;;
19347;SDS011;9810;52.480;9.806;2022-09-20T14:52:38;2.53;;;0.30;;
19347;SDS011;9810;52.480;9.806;2022-09-20T14:55:16;0.90;;;0.30;;
19347;SDS011;9810;52.480;9.806;2022-09-20T14:57:52;1.70;;;0.60;;
19347;SDS011;9810;52.480;9.806;2022-09-20T15:00:23;1.57;;;0.70;;
19347;SDS011;9810;52.480;9.806;2022-09-20T15:02:53;1.50;;;0.70;;
19347;SDS011;9810;52.480;9.806;2022-09-20T15:05:22;0.20;;;0.20;;
19347;SDS011;9810;52.480;9.806;2022-09-20T15:07:54;1.30;;;0.30;;
19347;SDS011;9810;52.480;9.806;2022-09-20T15:10:22;0.90;;;0.30;;
19347;SDS011;9810;52.480;9.806;2022-09-20T15:12:50;1.92;;;0.40;;
19347;SDS011;9810;52.480;9.806;2022-09-20T15:15:18;2.13;;;0.30;;
19347;SDS011;9810;52.480;9.806;2022-09-20T15:17:45;1.20;;;0.40;;
19347;SDS011;9810;52.480;9.806;2022-09-20T15:20:15;0.67;;;0.50;;
19347;SDS011;9810;52.480;9.806;2022-09-20T15:22:44;2.43;;;0.40;;
19347;SDS011;9810;52.480;9.806;2022-09-20T15:25:13;2.70;;;0.83;;
19347;SDS011;9810;52.480;9.806;2022-09-20T15:27:43;0.60;;;0.40;;
19347;SDS011;9810;52.480;9.806;2022-09-20T15:30:12;1.73;;;0.50;;
19347;SDS011;9810;52.480;9.806;2022-09-20T15:32:41;1.37;;;0.40;;
19347;SDS011;9810;52.480;9.806;2022-09-20T15:35:09;2.50;;;0.70;;
19347;SDS011;9810;52.480;9.806;2022-09-20T15:37:39;0.87;;;0.63;;
19347;SDS011;9810;52.480;9.806;2022-09-20T15:40:07;2.07;;;0.43;;
19347;SDS011;9810;52.480;9.806;2022-09-20T15:42:36;0.30;;;0.30;;
19347;SDS011;9810;52.480;9.806;2022-09-20T15:45:06;2.27;;;0.70;;
19347;SDS011;9810;52.480;9.806;2022-09-20T15:47:34;2.93;;;0.63;;
19347;SDS011;9810;52.480;9.806;2022-09-20T15:50:03;2.37;;;0.30;;
19347;SDS011;9810;52.480;9.806;2022-09-20T15:52:33;1.27;;;0.30;;
19347;SDS011;9810;52.480;9.806;2022-09-20T15:55:02;1.00;;;0.40;;
19347;SDS011;9810;52.480;9.806;2022-09-20T15:57:31;0.60;;;0.60;;
19347;SDS011;9810;52.480;9.806;2022-09-20T15:59:58;3.03;;;0.53;;
19347;SDS011;9810;52.480;9.806;2022-09-20T16:02:26;1.80;;;0.67;;
19347;SDS011;9810;52.480;9.806;2022-09-20T16:04:53;2.10;;;0.40;;
19347;SDS011;9810;52.480;9.806;2022-09-20T16:07:21;0.97;;;0.30;;
19347;SDS011;9810;52.480;9.806;2022-09-20T16:09:51;2.43;;;0.50;;
19347;SDS011;9810;52.480;9.806;2022-09-20T16:12:21;2.33;;;0.30;;
19347;SDS011;9810;52.480;9.806;2022-09-20T16:14:50;0.70;;;0.30;;
19347;SDS011;9810;52.480;9.806;2022-09-20T16:17:17;3.87;;;0.40;;
19347;SDS011;9810;52.480;9.806;2022-09-20T16:20:05;1.33;;;0.37;;
19347;SDS011;9810;52.480;9.806;2022-09-20T16:22:31;2.83;;;0.53;;
19347;SDS011;9810;52.480;9.806;2022-09-20T16:24:59;1.73;;;0.60;;
19347;SDS011;9810;52.480;9.806;2022-09-20T16:27:29;1.83;;;1.40;;
19347;SDS011;9810;52.480;9.806;2022-09-20T16:29:59;4.83;;;0.90;;